Darden, Tennessee
Current Conditions -  °F | °C
As of 8:55 PM on Sunday 23 Nov 2014 (Local Time) from KPVE Reporting Station
Overcast Overcast  
Wind Chill: 61°   Ceiling: 1700
Heat Index: 61°   Visibility: 10mi
Dew Point: 57°   Wind: 15mph
Humidity: 88%   Direction: 210°SSW
Pressure: 29.47"   Gusts: NA
Location:  35.64°N, 88.22°W
Report Text: KPVE 240255Z AUTO 21013KT 10SM BKN017 OVC023 16/14 A2947 RMK
Loading
Personal Weather Stations






























Interactive Weather Map New forecast layout! Learn more

10-Day Weather Forecast

Advertisements
Track Severe Weather on mobile